createdAt,value
2018-07-20T00:01:08.296Z,18.00
2018-07-20T00:03:36.736Z,18.00
2018-07-20T00:06:05.578Z,17.90
2018-07-20T00:08:34.047Z,17.90
2018-07-20T00:11:02.508Z,17.70
2018-07-20T00:13:30.977Z,17.60
2018-07-20T00:15:59.451Z,17.60
2018-07-20T00:18:27.979Z,17.60
2018-07-20T00:20:56.415Z,17.60
2018-07-20T00:23:24.875Z,17.50
2018-07-20T00:25:53.326Z,17.40
2018-07-20T00:28:21.731Z,17.40
2018-07-20T00:30:50.321Z,17.40
2018-07-20T00:33:18.772Z,17.30
2018-07-20T00:35:47.275Z,17.20
2018-07-20T00:38:15.817Z,17.20
2018-07-20T00:40:44.611Z,17.20
2018-07-20T00:43:13.098Z,17.20
2018-07-20T00:45:41.541Z,17.20
2018-07-20T00:48:10.013Z,17.10
2018-07-20T00:50:38.480Z,17.10
2018-07-20T00:53:07.310Z,17.00
2018-07-20T00:55:35.790Z,16.90
2018-07-20T00:58:04.630Z,16.90
2018-07-20T01:00:33.055Z,16.80
2018-07-20T01:03:01.520Z,16.80
2018-07-20T01:05:29.944Z,16.80
2018-07-20T01:07:58.625Z,16.80
2018-07-20T01:10:27.081Z,16.70
2018-07-20T01:12:55.605Z,16.70
2018-07-20T01:15:24.070Z,16.70
2018-07-20T01:17:52.500Z,16.70
2018-07-20T01:20:21.012Z,16.60
2018-07-20T01:22:49.504Z,16.60
2018-07-20T01:25:17.929Z,16.60
2018-07-20T01:27:46.359Z,16.40
2018-07-20T01:30:14.779Z,16.40
2018-07-20T01:32:43.263Z,16.30
2018-07-20T01:35:11.724Z,16.30
2018-07-20T01:37:40.219Z,16.20
2018-07-20T01:40:08.654Z,16.10
2018-07-20T01:42:37.155Z,16.10
2018-07-20T01:45:05.629Z,16.20
2018-07-20T01:47:34.039Z,16.20
2018-07-20T01:50:02.513Z,16.20
2018-07-20T01:52:30.964Z,16.20
2018-07-20T01:54:59.398Z,16.20
2018-07-20T01:57:27.893Z,16.10
2018-07-20T01:59:56.298Z,16.10
2018-07-20T02:02:24.841Z,16.10
2018-07-20T02:04:53.319Z,16.00
2018-07-20T02:07:21.743Z,16.00
2018-07-20T02:09:50.225Z,15.90
2018-07-20T02:12:18.688Z,15.90
2018-07-20T02:14:47.139Z,15.80
2018-07-20T02:17:15.617Z,15.80
2018-07-20T02:19:44.062Z,15.90
2018-07-20T02:22:12.527Z,15.90
2018-07-20T02:24:41.367Z,15.90
2018-07-20T02:27:09.821Z,15.80
2018-07-20T02:29:38.228Z,15.60
2018-07-20T02:32:07.392Z,15.60
2018-07-20T02:34:35.873Z,15.60
2018-07-20T02:37:04.306Z,15.50
2018-07-20T02:39:32.831Z,15.50
2018-07-20T02:42:01.268Z,15.60
2018-07-20T02:44:29.731Z,15.60
2018-07-20T02:46:58.202Z,15.60
2018-07-20T02:49:26.638Z,15.60
2018-07-20T02:51:55.068Z,15.50
2018-07-20T02:54:23.581Z,15.40
2018-07-20T02:56:52.045Z,15.40
2018-07-20T02:59:20.556Z,15.30
2018-07-20T03:01:48.976Z,15.30
2018-07-20T03:04:17.480Z,15.30
2018-07-20T03:06:45.920Z,15.20
2018-07-20T03:09:14.564Z,15.20
2018-07-20T03:11:43.850Z,15.30
2018-07-20T03:14:12.291Z,15.30
2018-07-20T03:16:40.756Z,15.30
2018-07-20T03:19:09.500Z,15.30
2018-07-20T03:21:37.965Z,15.30
2018-07-20T03:24:06.527Z,15.30
2018-07-20T03:26:34.960Z,15.20
2018-07-20T03:29:03.419Z,15.30
2018-07-20T03:31:31.862Z,15.30
2018-07-20T03:34:00.276Z,15.20
2018-07-20T03:36:28.754Z,15.20
2018-07-20T03:38:57.219Z,15.20
2018-07-20T03:41:25.689Z,15.30
2018-07-20T03:43:54.123Z,15.30
2018-07-20T03:46:22.602Z,15.30
2018-07-20T03:48:51.048Z,15.30
2018-07-20T03:51:19.511Z,15.30
2018-07-20T03:53:48.472Z,15.20
2018-07-20T03:56:17.081Z,15.30
2018-07-20T03:58:45.551Z,15.30
2018-07-20T04:01:13.992Z,15.30
2018-07-20T04:03:42.637Z,15.30
2018-07-20T04:06:11.111Z,15.20
2018-07-20T04:08:39.656Z,15.20
2018-07-20T04:11:08.196Z,15.20
2018-07-20T04:13:36.717Z,15.20
2018-07-20T04:16:05.167Z,15.10
2018-07-20T04:18:33.690Z,15.30
2018-07-20T04:21:02.145Z,15.30
2018-07-20T04:23:30.591Z,15.40
2018-07-20T04:25:59.074Z,15.50
2018-07-20T04:28:27.536Z,15.50
2018-07-20T04:30:56.322Z,15.40
2018-07-20T04:33:24.839Z,15.40
2018-07-20T04:35:53.288Z,15.40
2018-07-20T04:38:21.743Z,15.40
2018-07-20T04:40:50.158Z,15.40
2018-07-20T04:43:18.652Z,15.50
2018-07-20T04:45:47.088Z,15.70
2018-07-20T04:48:15.522Z,15.70
2018-07-20T04:50:43.991Z,15.90
2018-07-20T04:53:12.407Z,15.90
2018-07-20T04:55:40.887Z,16.10
2018-07-20T04:58:09.327Z,16.20
2018-07-20T05:00:37.801Z,16.30
2018-07-20T05:03:06.687Z,16.40
2018-07-20T05:05:35.137Z,16.50
2018-07-20T05:08:03.595Z,16.60
2018-07-20T05:10:35.027Z,16.80
2018-07-20T05:13:03.470Z,16.90
2018-07-20T05:15:31.935Z,17.00
2018-07-20T05:18:00.384Z,17.20
2018-07-20T05:20:29.063Z,17.50
2018-07-20T05:22:57.514Z,17.80
2018-07-20T05:25:25.988Z,17.90
2018-07-20T05:27:54.521Z,18.10
2018-07-20T05:30:23.128Z,18.30
2018-07-20T05:32:51.579Z,18.40
2018-07-20T05:35:20.018Z,18.60
2018-07-20T05:37:48.539Z,18.70
2018-07-20T05:40:17.109Z,18.80
2018-07-20T05:42:45.562Z,18.90
2018-07-20T05:45:14.196Z,19.00
2018-07-20T05:47:43.013Z,19.30
2018-07-20T05:50:11.492Z,19.50
2018-07-20T05:52:39.935Z,19.70
2018-07-20T05:55:08.433Z,19.80
2018-07-20T05:57:36.939Z,19.80
2018-07-20T06:00:05.672Z,19.90
2018-07-20T06:02:34.132Z,20.00
2018-07-20T06:05:02.573Z,20.20
2018-07-20T06:07:31.201Z,20.40
2018-07-20T06:09:59.680Z,20.60
2018-07-20T06:12:28.205Z,20.80
2018-07-20T06:14:56.637Z,21.00
2018-07-20T06:17:25.106Z,21.00
2018-07-20T06:19:53.582Z,21.10
2018-07-20T06:22:22.215Z,21.30
2018-07-20T06:24:50.708Z,21.40
2018-07-20T06:27:19.155Z,21.70
2018-07-20T06:29:47.620Z,22.00
2018-07-20T06:32:16.045Z,22.50
2018-07-20T06:34:44.458Z,22.60
2018-07-20T06:37:12.926Z,22.80
2018-07-20T06:39:41.358Z,22.90
2018-07-20T06:42:09.823Z,23.20
2018-07-20T06:44:38.247Z,23.30
2018-07-20T06:47:06.760Z,23.30
2018-07-20T06:49:35.193Z,22.50
2018-07-20T06:52:08.620Z,23.10
2018-07-20T06:54:37.060Z,23.40
2018-07-20T06:57:05.623Z,23.70
2018-07-20T06:59:34.075Z,23.50
2018-07-20T07:02:02.543Z,24.20
2018-07-20T07:04:31.039Z,24.30
2018-07-20T07:06:59.576Z,24.20
2018-07-20T07:09:28.060Z,23.40
2018-07-20T07:11:56.667Z,23.90
2018-07-20T07:14:25.103Z,24.70
2018-07-20T07:16:53.567Z,25.20
2018-07-20T07:19:22.053Z,25.40
2018-07-20T07:21:50.669Z,25.20
2018-07-20T07:24:19.357Z,25.80
2018-07-20T07:26:47.794Z,26.00
2018-07-20T07:29:16.264Z,26.00
2018-07-20T07:31:45.271Z,25.70
2018-07-20T07:34:14.140Z,25.20
2018-07-20T07:36:42.597Z,24.80
2018-07-20T07:39:12.255Z,23.90
2018-07-20T07:41:40.893Z,24.00
2018-07-20T07:44:09.379Z,23.80
2018-07-20T07:46:37.911Z,23.80
2018-07-20T07:49:06.805Z,24.40
2018-07-20T07:51:35.255Z,24.60
2018-07-20T07:54:03.705Z,24.30
2018-07-20T07:56:32.199Z,24.20
2018-07-20T07:59:00.655Z,24.40
2018-07-20T08:01:32.024Z,24.90
2018-07-20T08:04:00.645Z,25.50
2018-07-20T08:06:29.134Z,26.00
2018-07-20T08:08:57.768Z,26.20
2018-07-20T08:11:26.204Z,25.40
2018-07-20T08:13:54.664Z,26.00
2018-07-20T08:16:23.158Z,26.40
2018-07-20T08:18:51.578Z,26.40
2018-07-20T08:21:20.064Z,26.50
2018-07-20T08:23:48.494Z,27.20
2018-07-20T08:26:17.019Z,27.60
2018-07-20T08:28:45.453Z,26.10
2018-07-20T08:31:14.269Z,25.50
2018-07-20T08:33:42.758Z,25.20
2018-07-20T08:36:11.388Z,25.70
2018-07-20T08:38:40.033Z,25.90
2018-07-20T08:41:08.472Z,26.20
2018-07-20T08:43:37.157Z,26.40
2018-07-20T08:46:05.652Z,26.40
2018-07-20T08:48:34.122Z,26.80
2018-07-20T08:51:02.588Z,26.40
2018-07-20T08:53:31.137Z,27.00
2018-07-20T08:55:59.547Z,27.30
2018-07-20T08:58:28.324Z,26.50
2018-07-20T09:00:56.762Z,26.40
2018-07-20T09:03:25.292Z,26.40
2018-07-20T09:05:54.292Z,26.50
2018-07-20T09:08:22.752Z,27.20
2018-07-20T09:10:51.749Z,27.40
2018-07-20T09:13:20.191Z,28.00
2018-07-20T09:15:48.780Z,27.50
2018-07-20T09:18:17.250Z,26.90
2018-07-20T09:23:14.280Z,26.30
2018-07-20T09:25:42.868Z,26.50
2018-07-20T09:28:11.435Z,27.90
2018-07-20T09:30:40.082Z,28.70
2018-07-20T09:33:08.870Z,28.20
2018-07-20T09:35:37.327Z,28.30
2018-07-20T09:38:05.799Z,28.50
2018-07-20T09:40:34.279Z,28.40
2018-07-20T09:43:02.729Z,28.50
2018-07-20T09:45:31.179Z,28.10
2018-07-20T09:47:59.625Z,28.20
2018-07-20T09:50:28.169Z,28.10
2018-07-20T09:52:56.664Z,26.80
2018-07-20T09:55:25.121Z,26.60
2018-07-20T09:57:53.613Z,26.80
2018-07-20T10:00:27.407Z,27.50
2018-07-20T10:02:55.899Z,28.40
2018-07-20T10:05:24.344Z,28.10
2018-07-20T10:07:52.813Z,28.10
2018-07-20T10:10:21.298Z,28.30
2018-07-20T10:12:50.584Z,27.10
2018-07-20T10:15:19.118Z,26.90
2018-07-20T10:17:48.063Z,27.50
2018-07-20T10:20:16.579Z,27.80
2018-07-20T10:22:44.982Z,27.70
2018-07-20T10:25:13.427Z,27.80
2018-07-20T10:30:10.693Z,27.40
2018-07-20T10:32:39.127Z,27.50
2018-07-20T10:35:07.549Z,27.90
2018-07-20T10:37:35.967Z,27.60
2018-07-20T10:40:04.502Z,27.50
2018-07-20T10:42:33.042Z,27.60
2018-07-20T10:45:01.462Z,27.50
2018-07-20T10:47:30.167Z,27.60
2018-07-20T10:49:58.622Z,27.20
2018-07-20T10:52:27.158Z,27.30
2018-07-20T10:54:55.606Z,27.20
2018-07-20T10:57:24.070Z,27.70
2018-07-20T10:59:52.527Z,27.20
2018-07-20T11:02:20.973Z,26.40
2018-07-20T11:04:49.435Z,26.40
2018-07-20T11:07:17.900Z,26.10
2018-07-20T11:09:46.380Z,25.80
2018-07-20T11:12:14.815Z,26.60
2018-07-20T11:14:43.251Z,27.70
2018-07-20T11:17:12.048Z,28.70
2018-07-20T11:19:40.454Z,29.10
2018-07-20T11:22:09.278Z,29.10
2018-07-20T11:24:37.805Z,29.30
2018-07-20T11:27:06.599Z,30.00
2018-07-20T11:29:35.103Z,30.30
2018-07-20T11:32:03.933Z,29.60
2018-07-20T11:34:32.368Z,29.30
2018-07-20T11:37:00.861Z,29.60
2018-07-20T11:39:29.294Z,30.20
2018-07-20T11:41:57.768Z,30.30
2018-07-20T11:44:26.387Z,31.10
2018-07-20T11:46:55.189Z,30.70
2018-07-20T11:49:23.618Z,30.30
2018-07-20T11:51:52.084Z,30.60
2018-07-20T11:54:20.622Z,30.00
2018-07-20T11:56:49.087Z,29.80
2018-07-20T11:59:17.541Z,30.50
2018-07-20T12:01:46.033Z,31.30
2018-07-20T12:04:14.672Z,30.70
2018-07-20T12:06:43.141Z,30.50
2018-07-20T12:09:12.491Z,30.00
2018-07-20T12:11:41.556Z,30.30
2018-07-20T12:14:10.006Z,30.20
2018-07-20T12:16:38.731Z,30.50
2018-07-20T12:19:07.185Z,30.40
2018-07-20T12:21:35.687Z,30.30
2018-07-20T12:24:04.151Z,30.30
2018-07-20T12:26:32.571Z,30.60
2018-07-20T12:29:01.110Z,29.20
2018-07-20T12:31:29.635Z,29.20
2018-07-20T12:33:58.459Z,29.60
2018-07-20T12:36:27.336Z,30.60
2018-07-20T12:38:55.795Z,30.50
2018-07-20T12:41:24.312Z,29.90
2018-07-20T12:43:52.808Z,29.60
2018-07-20T12:46:21.249Z,29.20
2018-07-20T12:48:49.714Z,28.70
2018-07-20T12:51:18.546Z,29.10
2018-07-20T12:53:47.014Z,28.90
2018-07-20T12:56:15.491Z,28.90
2018-07-20T12:58:44.045Z,28.90
2018-07-20T13:01:12.723Z,28.90
2018-07-20T13:03:41.208Z,29.30
2018-07-20T13:06:09.643Z,29.80
2018-07-20T13:08:38.156Z,30.30
2018-07-20T13:11:06.738Z,31.10
2018-07-20T13:13:35.222Z,31.40
2018-07-20T13:16:03.696Z,31.50
2018-07-20T13:18:32.199Z,30.20
2018-07-20T13:21:00.846Z,29.40
2018-07-20T13:23:29.305Z,28.80
2018-07-20T13:25:57.785Z,28.60
2018-07-20T13:28:26.231Z,29.00
2018-07-20T13:30:54.710Z,29.30
2018-07-20T13:33:23.144Z,29.00
2018-07-20T13:35:51.597Z,28.90
2018-07-20T13:38:20.036Z,29.10
2018-07-20T13:40:48.600Z,28.90
2018-07-20T13:43:17.037Z,29.50
2018-07-20T13:45:45.475Z,29.20
2018-07-20T13:48:14.277Z,29.50
2018-07-20T13:50:43.147Z,29.70
2018-07-20T13:53:11.594Z,29.60
2018-07-20T13:55:40.249Z,28.80
2018-07-20T13:58:08.711Z,28.50
2018-07-20T14:00:37.148Z,28.70
2018-07-20T14:03:05.606Z,28.00
2018-07-20T14:05:34.026Z,27.90
2018-07-20T14:08:02.490Z,28.00
2018-07-20T14:10:31.000Z,28.30
2018-07-20T14:12:59.395Z,28.40
2018-07-20T14:15:27.875Z,28.70
2018-07-20T14:17:56.356Z,28.50
2018-07-20T14:20:25.595Z,28.30
2018-07-20T14:22:54.082Z,28.30
2018-07-20T14:25:22.554Z,27.80
2018-07-20T14:27:51.003Z,27.40
2018-07-20T14:30:19.821Z,27.40
2018-07-20T14:32:48.348Z,27.70
2018-07-20T14:35:16.804Z,27.80
2018-07-20T14:37:45.301Z,27.50
2018-07-20T14:40:13.779Z,27.70
2018-07-20T14:42:44.292Z,28.00
2018-07-20T14:45:12.778Z,27.40
2018-07-20T14:47:41.201Z,27.40
2018-07-20T14:50:09.678Z,27.60
2018-07-20T14:52:38.109Z,27.70
2018-07-20T14:55:06.568Z,27.70
2018-07-20T14:57:35.062Z,27.50
2018-07-20T15:00:03.633Z,27.30
2018-07-20T15:02:32.098Z,27.30
2018-07-20T15:05:00.542Z,27.10
2018-07-20T15:07:28.998Z,27.10
2018-07-20T15:09:57.388Z,27.30
2018-07-20T15:12:25.899Z,27.30
2018-07-20T15:14:54.401Z,27.30
2018-07-20T15:17:22.836Z,27.00
2018-07-20T15:19:51.316Z,26.90
2018-07-20T15:22:19.774Z,27.00
2018-07-20T15:24:48.231Z,27.00
2018-07-20T15:27:16.711Z,26.90
2018-07-20T15:29:45.209Z,26.90
2018-07-20T15:32:13.865Z,26.70
2018-07-20T15:34:42.297Z,26.80
2018-07-20T15:37:10.959Z,26.60
2018-07-20T15:39:39.446Z,26.60
2018-07-20T15:42:08.634Z,26.50
2018-07-20T15:44:37.122Z,26.30
2018-07-20T15:47:05.989Z,26.20
2018-07-20T15:49:34.629Z,26.30
2018-07-20T15:54:31.584Z,26.50
2018-07-20T15:57:00.229Z,26.60
2018-07-20T15:59:28.769Z,26.90
2018-07-20T16:01:58.039Z,26.90
2018-07-20T16:04:26.554Z,26.70
2018-07-20T16:06:54.990Z,25.70
2018-07-20T16:09:23.420Z,25.30
2018-07-20T16:11:51.861Z,25.00
2018-07-20T16:14:20.443Z,24.80
2018-07-20T16:16:48.904Z,24.40
2018-07-20T16:19:17.404Z,24.10
2018-07-20T16:21:46.268Z,23.70
2018-07-20T16:24:14.754Z,23.40
2018-07-20T16:26:43.213Z,23.10
2018-07-20T16:29:11.713Z,22.90
2018-07-20T16:31:40.128Z,22.80
2018-07-20T16:34:08.585Z,22.70
2018-07-20T16:36:37.028Z,22.50
2018-07-20T16:39:08.006Z,22.20
2018-07-20T16:41:36.652Z,22.30
2018-07-20T16:44:05.093Z,22.30
2018-07-20T16:46:33.558Z,22.30
2018-07-20T16:49:02.043Z,22.10
2018-07-20T16:51:30.732Z,22.10
2018-07-20T16:53:59.153Z,22.00
2018-07-20T16:56:27.663Z,22.00
2018-07-20T16:58:56.176Z,22.00
2018-07-20T17:01:24.668Z,22.00
2018-07-20T17:03:53.428Z,22.00
2018-07-20T17:06:22.147Z,22.10
2018-07-20T17:08:50.567Z,22.30
2018-07-20T17:11:19.077Z,22.50
2018-07-20T17:13:47.892Z,22.50
2018-07-20T17:16:16.372Z,22.40
2018-07-20T17:18:44.825Z,22.30
2018-07-20T17:21:13.362Z,22.20
2018-07-20T17:23:41.843Z,22.30
2018-07-20T17:26:10.277Z,22.30
2018-07-20T17:28:38.723Z,22.40
2018-07-20T17:31:07.507Z,22.40
2018-07-20T17:33:36.004Z,22.50
2018-07-20T17:36:04.612Z,22.70
2018-07-20T17:38:33.114Z,22.80
2018-07-20T17:41:01.596Z,22.70
2018-07-20T17:43:30.012Z,22.60
2018-07-20T17:45:58.502Z,22.50
2018-07-20T17:48:27.017Z,22.60
2018-07-20T17:50:55.626Z,22.50
2018-07-20T17:53:24.113Z,22.50
2018-07-20T17:55:52.676Z,22.50
2018-07-20T17:58:21.131Z,22.40
2018-07-20T18:00:49.680Z,22.50
2018-07-20T18:03:18.215Z,22.60
2018-07-20T18:05:46.660Z,22.60
2018-07-20T18:08:15.096Z,22.60
2018-07-20T18:10:43.615Z,22.60
2018-07-20T18:13:12.057Z,22.60
2018-07-20T18:15:40.550Z,22.70
2018-07-20T18:18:09.053Z,22.70
2018-07-20T18:20:38.007Z,22.80
2018-07-20T18:23:06.636Z,22.80
2018-07-20T18:25:35.174Z,22.90
2018-07-20T18:28:03.695Z,22.90
2018-07-20T18:30:32.129Z,22.80
2018-07-20T18:33:00.660Z,22.80
2018-07-20T18:35:29.120Z,22.80
2018-07-20T18:37:57.539Z,22.80
2018-07-20T18:40:26.159Z,22.60
2018-07-20T18:42:54.685Z,22.60
2018-07-20T18:45:23.347Z,22.40
2018-07-20T18:47:52.155Z,22.30
2018-07-20T18:50:20.786Z,22.40
2018-07-20T18:52:49.667Z,22.30
2018-07-20T18:55:18.102Z,22.30
2018-07-20T18:57:47.603Z,22.20
2018-07-20T19:00:16.116Z,22.10
2018-07-20T19:02:44.748Z,22.10
2018-07-20T19:05:13.338Z,22.00
2018-07-20T19:07:42.067Z,21.90
2018-07-20T19:10:10.647Z,21.90
2018-07-20T19:12:39.239Z,21.70
2018-07-20T19:15:07.850Z,21.70
2018-07-20T19:17:36.343Z,21.70
2018-07-20T19:20:05.157Z,21.80
2018-07-20T19:22:33.682Z,21.80
2018-07-20T19:25:02.292Z,21.70
2018-07-20T19:27:30.808Z,21.70
2018-07-20T19:29:59.362Z,21.60
2018-07-20T19:32:27.853Z,21.60
2018-07-20T19:34:56.308Z,21.60
2018-07-20T19:37:25.162Z,21.60
2018-07-20T19:39:53.648Z,21.70
2018-07-20T19:42:22.072Z,21.70
2018-07-20T19:44:50.596Z,21.60
2018-07-20T19:47:19.081Z,21.70
2018-07-20T19:49:47.652Z,21.70
2018-07-20T19:52:16.126Z,21.80
2018-07-20T19:54:44.831Z,21.70
2018-07-20T19:57:13.288Z,21.80
2018-07-20T19:59:41.747Z,21.80
2018-07-20T20:02:10.352Z,21.70
2018-07-20T20:04:38.862Z,21.80
2018-07-20T20:07:07.506Z,21.80
2018-07-20T20:09:36.107Z,21.80
2018-07-20T20:12:04.947Z,21.70
2018-07-20T20:14:33.426Z,21.80
2018-07-20T20:17:01.923Z,21.90
2018-07-20T20:19:30.597Z,21.90
2018-07-20T20:21:59.177Z,21.90
2018-07-20T20:24:27.656Z,21.90
2018-07-20T20:26:58.913Z,21.80
2018-07-20T20:29:28.977Z,21.70
2018-07-20T20:31:58.529Z,21.60
2018-07-20T20:34:27.041Z,21.50
2018-07-20T20:36:55.516Z,21.50
2018-07-20T20:39:23.972Z,21.50
2018-07-20T20:41:52.493Z,21.50
2018-07-20T20:44:22.603Z,21.50
2018-07-20T20:46:51.104Z,21.50
2018-07-20T20:49:19.585Z,21.60
2018-07-20T20:51:48.260Z,21.60
2018-07-20T20:54:17.048Z,21.60
2018-07-20T20:56:45.542Z,21.60
2018-07-20T20:59:14.044Z,21.50
2018-07-20T21:01:42.669Z,21.50
2018-07-20T21:04:11.161Z,21.40
2018-07-20T21:06:39.807Z,21.40
2018-07-20T21:09:08.962Z,21.30
2018-07-20T21:11:37.757Z,21.30
2018-07-20T21:14:07.558Z,21.30
2018-07-20T21:16:37.031Z,21.30
2018-07-20T21:19:06.295Z,21.20
2018-07-20T21:21:35.821Z,21.10
2018-07-20T21:24:05.411Z,21.10
2018-07-20T21:26:34.639Z,21.00
2018-07-20T21:29:03.475Z,20.90
2018-07-20T21:31:31.989Z,20.80
2018-07-20T21:34:01.170Z,20.60
2018-07-20T21:36:29.730Z,20.50
2018-07-20T21:38:58.999Z,20.40
2018-07-20T21:41:27.463Z,20.30
2018-07-20T21:43:56.438Z,20.20
2018-07-20T21:46:25.458Z,20.20
2018-07-20T21:48:54.030Z,20.00
2018-07-20T21:51:22.513Z,19.80
2018-07-20T21:53:51.007Z,19.80
2018-07-20T21:56:19.458Z,19.70
2018-07-20T21:58:48.686Z,19.80
2018-07-20T22:01:17.226Z,19.80
2018-07-20T22:03:45.770Z,19.70
2018-07-20T22:06:14.447Z,19.60
2018-07-20T22:08:42.938Z,19.60
2018-07-20T22:11:11.383Z,19.60
2018-07-20T22:13:39.864Z,19.60
2018-07-20T22:16:08.331Z,19.60
2018-07-20T22:18:36.836Z,19.70
2018-07-20T22:21:05.365Z,19.70
2018-07-20T22:23:33.845Z,19.70
2018-07-20T22:26:02.297Z,19.70
2018-07-20T22:28:30.761Z,19.70
2018-07-20T22:30:59.195Z,19.70
2018-07-20T22:33:27.645Z,19.70
2018-07-20T22:35:56.074Z,19.60
2018-07-20T22:38:24.554Z,19.50
2018-07-20T22:40:53.003Z,19.50
2018-07-20T22:43:21.653Z,19.40
2018-07-20T22:45:50.083Z,19.40
2018-07-20T22:48:18.609Z,19.40
2018-07-20T22:50:47.062Z,19.40
2018-07-20T22:53:15.619Z,19.30
2018-07-20T22:55:44.068Z,19.20
2018-07-20T22:58:12.586Z,19.20
2018-07-20T23:00:41.010Z,19.20
2018-07-20T23:03:09.471Z,19.20
2018-07-20T23:05:37.935Z,19.30
2018-07-20T23:08:06.435Z,19.30
2018-07-20T23:10:34.880Z,19.20
2018-07-20T23:13:03.374Z,19.20
2018-07-20T23:15:31.841Z,19.20
2018-07-20T23:18:00.281Z,19.30
2018-07-20T23:20:28.785Z,19.20
2018-07-20T23:22:57.279Z,19.20
2018-07-20T23:25:25.703Z,19.20
2018-07-20T23:27:54.158Z,19.20
2018-07-20T23:30:22.933Z,19.10
2018-07-20T23:32:51.363Z,19.00
2018-07-20T23:35:19.881Z,19.00
2018-07-20T23:37:48.324Z,18.80
2018-07-20T23:40:16.779Z,18.70
2018-07-20T23:42:45.214Z,18.60
2018-07-20T23:45:13.647Z,18.50
2018-07-20T23:47:42.127Z,18.50
2018-07-20T23:50:11.027Z,18.50
2018-07-20T23:52:39.547Z,18.40
2018-07-20T23:55:08.447Z,18.30
2018-07-20T23:57:36.976Z,18.20
